createdAt,value
2022-12-19T00:00:15.075Z,32.12
2022-12-19T00:01:14.606Z,31.04
2022-12-19T00:02:17.415Z,25.02
2022-12-19T00:03:20.226Z,25.48
2022-12-19T00:04:23.025Z,28.40
2022-12-19T00:05:25.590Z,28.35
2022-12-19T00:06:28.573Z,25.44
2022-12-19T00:07:39.023Z,28.56
2022-12-19T00:08:41.690Z,27.56
2022-12-19T00:09:44.359Z,33.83
2022-12-19T00:10:47.135Z,29.79
2022-12-19T00:11:51.548Z,31.30
2022-12-19T00:12:54.624Z,29.27
2022-12-19T00:13:57.498Z,29.28
2022-12-19T00:15:00.274Z,25.44
2022-12-19T00:16:04.732Z,28.25
2022-12-19T00:17:07.557Z,26.36
2022-12-19T00:18:10.856Z,26.95
2022-12-19T00:19:13.818Z,23.55
2022-12-19T00:20:18.506Z,28.16
2022-12-19T00:21:21.099Z,34.91
2022-12-19T00:22:23.979Z,38.01
2022-12-19T00:23:27.168Z,28.96
2022-12-19T00:24:30.048Z,30.28
2022-12-19T00:25:32.808Z,35.55
2022-12-19T00:26:36.396Z,33.85
2022-12-19T00:27:39.271Z,28.37
2022-12-19T00:28:42.249Z,30.12
2022-12-19T00:29:45.123Z,30.40
2022-12-19T00:30:48.097Z,31.57
2022-12-19T00:31:51.158Z,29.72
2022-12-19T00:32:54.053Z,31.44
2022-12-19T00:33:57.649Z,28.22
2022-12-19T00:35:01.152Z,31.57
2022-12-19T00:36:04.626Z,30.44
2022-12-19T00:37:07.497Z,28.46
2022-12-19T00:38:10.381Z,31.47
2022-12-19T00:39:13.246Z,31.53
2022-12-19T00:40:16.326Z,28.95
2022-12-19T00:41:19.505Z,29.49
2022-12-19T00:42:22.396Z,32.21
2022-12-19T00:43:25.273Z,32.10
2022-12-19T00:44:28.246Z,31.48
2022-12-19T00:45:31.164Z,31.85
2022-12-19T00:46:33.988Z,34.11
2022-12-19T00:47:36.556Z,34.31
2022-12-19T00:48:39.223Z,29.68
2022-12-19T00:49:42.194Z,32.88
2022-12-19T00:50:46.411Z,26.53
2022-12-19T00:51:48.877Z,28.78
2022-12-19T00:52:51.551Z,26.78
2022-12-19T00:53:54.310Z,32.33
2022-12-19T00:54:57.424Z,22.06
2022-12-19T00:56:00.160Z,30.20
2022-12-19T00:57:03.040Z,33.74
2022-12-19T00:58:05.923Z,28.54
2022-12-19T00:59:08.789Z,31.94
2022-12-19T01:00:11.769Z,29.41
2022-12-19T01:01:14.733Z,26.64
2022-12-19T01:02:17.711Z,29.14
2022-12-19T01:03:20.676Z,30.83
2022-12-19T01:04:28.493Z,32.62
2022-12-19T01:05:27.880Z,28.52
2022-12-19T01:06:31.176Z,28.08
2022-12-19T01:07:34.551Z,27.48
2022-12-19T01:08:37.431Z,28.42
2022-12-19T01:09:40.307Z,30.04
2022-12-19T01:10:43.387Z,31.20
2022-12-19T01:11:46.156Z,30.02
2022-12-19T01:12:48.926Z,27.62
2022-12-19T01:13:52.936Z,28.78
2022-12-19T01:14:56.397Z,30.15
2022-12-19T01:16:00.176Z,31.44
2022-12-19T01:17:02.774Z,35.23
2022-12-19T01:18:05.545Z,32.82
2022-12-19T01:19:08.327Z,26.72
2022-12-19T01:20:11.195Z,34.53
2022-12-19T01:21:14.406Z,32.13
2022-12-19T01:22:17.146Z,32.45
2022-12-19T01:23:20.157Z,36.03
2022-12-19T01:24:23.102Z,32.25
2022-12-19T01:25:25.976Z,34.05
2022-12-19T01:26:29.058Z,34.17
2022-12-19T01:27:31.833Z,35.88
2022-12-19T01:28:34.501Z,33.48
2022-12-19T01:29:42.791Z,32.05
2022-12-19T01:30:41.272Z,31.32
2022-12-19T01:31:44.519Z,26.15
2022-12-19T01:32:47.119Z,32.92
2022-12-19T01:33:49.800Z,34.02
2022-12-19T01:34:52.977Z,29.33
2022-12-19T01:35:55.540Z,35.26
2022-12-19T01:36:58.417Z,27.99
2022-12-19T01:38:07.956Z,27.65
2022-12-19T01:39:05.190Z,28.65
2022-12-19T01:40:07.860Z,26.70
2022-12-19T01:41:10.424Z,31.55
2022-12-19T01:42:13.297Z,26.34
2022-12-19T01:43:15.970Z,28.38
2022-12-19T01:44:18.537Z,28.92
2022-12-19T01:45:21.214Z,26.18
2022-12-19T01:46:23.906Z,28.23
2022-12-19T01:47:28.198Z,28.71
2022-12-19T01:48:30.751Z,31.19
2022-12-19T01:49:33.423Z,28.73
2022-12-19T01:50:36.095Z,31.91
2022-12-19T01:51:38.760Z,28.94
2022-12-19T01:52:41.540Z,25.77
2022-12-19T01:53:48.258Z,26.22
2022-12-19T01:54:48.819Z,23.35
2022-12-19T01:55:51.595Z,29.57
2022-12-19T01:56:54.537Z,29.67
2022-12-19T01:57:57.421Z,33.12
2022-12-19T01:59:06.526Z,30.47
2022-12-19T02:00:04.745Z,27.30
2022-12-19T02:01:07.636Z,26.68
2022-12-19T02:02:10.524Z,28.65
2022-12-19T02:03:13.471Z,24.48
2022-12-19T02:04:16.298Z,29.90
2022-12-19T02:05:19.173Z,27.28
2022-12-19T02:06:22.050Z,28.92
2022-12-19T02:07:24.622Z,22.55
2022-12-19T02:08:27.592Z,30.97
2022-12-19T02:09:32.106Z,27.76
2022-12-19T02:10:34.982Z,29.41
2022-12-19T02:11:37.863Z,28.46
2022-12-19T02:12:40.526Z,31.60
2022-12-19T02:13:43.591Z,29.84
2022-12-19T02:14:48.024Z,29.38
2022-12-19T02:15:51.097Z,26.84
2022-12-19T02:16:53.834Z,31.02
2022-12-19T02:17:56.536Z,32.85
2022-12-19T02:18:59.518Z,28.10
2022-12-19T02:20:02.085Z,33.68
2022-12-19T02:21:04.773Z,30.23
2022-12-19T02:22:07.483Z,32.24
2022-12-19T02:23:09.999Z,34.40
2022-12-19T02:24:14.202Z,32.29
2022-12-19T02:25:16.869Z,30.46
2022-12-19T02:26:19.748Z,30.45
2022-12-19T02:27:22.623Z,32.25
2022-12-19T02:28:25.411Z,37.68
2022-12-19T02:29:28.474Z,37.22
2022-12-19T02:30:31.498Z,29.01
2022-12-19T02:31:34.320Z,30.58
2022-12-19T02:32:37.105Z,30.80
2022-12-19T02:33:39.870Z,30.70
2022-12-19T02:34:44.676Z,29.85
2022-12-19T02:35:47.681Z,31.96
2022-12-19T02:36:50.454Z,31.36
2022-12-19T02:37:54.242Z,33.06
2022-12-19T02:38:58.665Z,31.19
2022-12-19T02:40:01.770Z,29.59
2022-12-19T02:41:04.707Z,28.04
2022-12-19T02:42:07.593Z,27.86
2022-12-19T02:43:10.371Z,24.22
2022-12-19T02:44:13.234Z,24.62
2022-12-19T02:45:22.735Z,26.42
2022-12-19T02:46:20.911Z,20.71
2022-12-19T02:47:23.814Z,20.57
2022-12-19T02:48:26.677Z,17.28
2022-12-19T02:49:30.583Z,19.52
2022-12-19T02:50:34.075Z,25.09
2022-12-19T02:51:36.957Z,20.80
2022-12-19T02:52:39.713Z,22.38
2022-12-19T02:53:42.623Z,21.32
2022-12-19T02:54:45.772Z,17.61
2022-12-19T02:55:49.272Z,17.73
2022-12-19T02:56:52.243Z,18.36
2022-12-19T02:57:55.023Z,21.88
2022-12-19T02:58:57.785Z,22.18
2022-12-19T03:00:00.368Z,24.25
2022-12-19T03:01:04.789Z,21.29
2022-12-19T03:02:07.613Z,23.47
2022-12-19T03:03:10.602Z,22.93
2022-12-19T03:04:13.292Z,17.65
2022-12-19T03:05:16.597Z,20.58
2022-12-19T03:06:20.268Z,20.41
2022-12-19T03:07:22.944Z,18.19
2022-12-19T03:08:25.609Z,19.32
2022-12-19T03:09:28.290Z,18.26
2022-12-19T03:10:31.151Z,20.38
2022-12-19T03:11:34.231Z,20.05
2022-12-19T03:12:37.130Z,20.54
2022-12-19T03:13:40.000Z,21.74
2022-12-19T03:14:42.753Z,20.77
2022-12-19T03:15:45.528Z,17.68
2022-12-19T03:16:48.770Z,21.26
2022-12-19T03:17:51.595Z,19.52
2022-12-19T03:18:54.873Z,21.06
2022-12-19T03:19:57.741Z,18.99
2022-12-19T03:21:00.528Z,17.77
2022-12-19T03:22:03.594Z,22.39
2022-12-19T03:23:06.265Z,19.82
2022-12-19T03:24:10.173Z,21.79
2022-12-19T03:25:13.073Z,21.05
2022-12-19T03:26:15.613Z,19.07
2022-12-19T03:27:18.613Z,20.25
2022-12-19T03:28:21.363Z,23.52
2022-12-19T03:29:24.129Z,25.61
2022-12-19T03:30:27.039Z,21.68
2022-12-19T03:31:29.888Z,25.71
2022-12-19T03:32:32.878Z,23.55
2022-12-19T03:33:35.629Z,24.72
2022-12-19T03:34:38.404Z,23.22
2022-12-19T03:35:41.505Z,23.21
2022-12-19T03:36:44.581Z,23.75
2022-12-19T03:37:47.535Z,24.39
2022-12-19T03:38:50.414Z,22.22
2022-12-19T03:39:53.287Z,26.38
2022-12-19T03:40:56.275Z,25.52
2022-12-19T03:41:59.053Z,31.93
2022-12-19T03:43:02.122Z,27.50
2022-12-19T03:44:05.209Z,26.94
2022-12-19T03:45:08.073Z,28.11
2022-12-19T03:46:11.172Z,35.00
2022-12-19T03:47:14.243Z,33.45
2022-12-19T03:48:17.104Z,27.53
2022-12-19T03:49:19.980Z,23.92
2022-12-19T03:50:22.752Z,24.87
2022-12-19T03:51:25.627Z,23.27
2022-12-19T03:52:28.505Z,27.42
2022-12-19T03:53:31.506Z,27.98
2022-12-19T03:54:34.053Z,29.01
2022-12-19T03:55:36.719Z,27.29
2022-12-19T03:56:39.287Z,27.30
2022-12-19T03:57:41.972Z,26.72
2022-12-19T03:58:44.624Z,24.67
2022-12-19T03:59:47.189Z,26.00
2022-12-19T04:00:49.768Z,28.25
2022-12-19T04:01:52.576Z,28.38
2022-12-19T04:02:55.404Z,32.32
2022-12-19T04:03:58.382Z,25.61
2022-12-19T04:05:01.156Z,21.45
2022-12-19T04:06:04.132Z,22.12
2022-12-19T04:07:07.019Z,25.43
2022-12-19T04:08:09.988Z,29.27
2022-12-19T04:09:16.776Z,28.14
2022-12-19T04:10:17.887Z,26.97
2022-12-19T04:11:20.787Z,20.94
2022-12-19T04:12:23.743Z,18.88
2022-12-19T04:13:26.511Z,20.85
2022-12-19T04:14:29.491Z,23.29
2022-12-19T04:15:32.519Z,21.72
2022-12-19T04:16:36.055Z,23.11
2022-12-19T04:17:39.134Z,21.52
2022-12-19T04:18:41.911Z,24.52
2022-12-19T04:19:44.783Z,22.27
2022-12-19T04:20:47.659Z,22.46
2022-12-19T04:21:50.529Z,19.80
2022-12-19T04:22:53.301Z,24.38
2022-12-19T04:23:56.178Z,21.94
2022-12-19T04:24:59.255Z,21.22
2022-12-19T04:26:02.033Z,20.76
2022-12-19T04:27:04.601Z,21.48
2022-12-19T04:28:07.372Z,24.08
2022-12-19T04:29:10.243Z,27.72
2022-12-19T04:30:13.425Z,26.92
2022-12-19T04:31:16.395Z,26.42
2022-12-19T04:32:19.172Z,23.96
2022-12-19T04:33:22.050Z,27.36
2022-12-19T04:34:25.026Z,23.07
2022-12-19T04:35:28.218Z,24.04
2022-12-19T04:36:31.187Z,20.35
2022-12-19T04:37:34.062Z,23.45
2022-12-19T04:38:37.048Z,21.09
2022-12-19T04:39:39.813Z,22.30
2022-12-19T04:40:42.894Z,22.53
2022-12-19T04:41:45.766Z,19.75
2022-12-19T04:42:48.645Z,17.22
2022-12-19T04:43:52.436Z,21.16
2022-12-19T04:44:55.330Z,23.00
2022-12-19T04:45:58.032Z,20.66
2022-12-19T04:47:00.541Z,20.12
2022-12-19T04:48:03.267Z,23.83
2022-12-19T04:49:05.799Z,22.65
2022-12-19T04:50:08.446Z,19.39
2022-12-19T04:51:11.127Z,20.05
2022-12-19T04:52:14.018Z,22.22
2022-12-19T04:53:16.767Z,19.85
2022-12-19T04:54:19.540Z,19.77
2022-12-19T04:55:22.421Z,18.24
2022-12-19T04:56:25.395Z,19.99
2022-12-19T04:57:28.267Z,19.98
2022-12-19T04:58:30.939Z,20.19
2022-12-19T04:59:33.613Z,23.94
2022-12-19T05:00:36.280Z,18.79
2022-12-19T05:01:39.159Z,17.88
2022-12-19T05:02:41.983Z,21.51
2022-12-19T05:03:47.788Z,22.98
2022-12-19T05:04:49.001Z,24.41
2022-12-19T05:05:51.683Z,22.31
2022-12-19T05:06:54.242Z,24.47
2022-12-19T05:07:56.911Z,20.11
2022-12-19T05:08:59.476Z,18.45
2022-12-19T05:10:02.150Z,19.53
2022-12-19T05:11:04.815Z,24.62
2022-12-19T05:12:07.511Z,25.90
2022-12-19T05:13:09.951Z,22.81
2022-12-19T05:14:12.538Z,26.25
2022-12-19T05:15:15.195Z,20.15
2022-12-19T05:16:17.899Z,21.32
2022-12-19T05:17:20.639Z,22.11
2022-12-19T05:18:23.303Z,21.55
2022-12-19T05:19:25.978Z,18.23
2022-12-19T05:20:28.741Z,19.08
2022-12-19T05:21:31.410Z,18.05
2022-12-19T05:22:34.390Z,26.19
2022-12-19T05:23:36.977Z,24.38
2022-12-19T05:24:39.628Z,27.17
2022-12-19T05:25:42.210Z,21.64
2022-12-19T05:26:44.815Z,22.74
2022-12-19T05:27:47.430Z,24.05
2022-12-19T05:28:50.000Z,21.29
2022-12-19T05:29:52.673Z,17.89
2022-12-19T05:30:55.493Z,18.07
2022-12-19T05:31:58.442Z,23.40
2022-12-19T05:33:01.907Z,24.89
2022-12-19T05:34:04.779Z,23.59
2022-12-19T05:35:08.300Z,24.08
2022-12-19T05:36:11.304Z,21.26
2022-12-19T05:37:14.123Z,23.55
2022-12-19T05:38:17.410Z,22.30
2022-12-19T05:39:20.277Z,22.22
2022-12-19T05:40:23.158Z,20.62
2022-12-19T05:41:26.039Z,23.68
2022-12-19T05:42:28.905Z,22.26
2022-12-19T05:43:32.191Z,24.73
2022-12-19T05:44:35.064Z,18.70
2022-12-19T05:45:37.936Z,25.85
2022-12-19T05:46:40.777Z,21.58
2022-12-19T05:47:43.582Z,24.77
2022-12-19T05:48:46.772Z,27.69
2022-12-19T05:49:49.438Z,25.21
2022-12-19T05:50:52.316Z,25.06
2022-12-19T05:51:55.180Z,25.21
2022-12-19T05:52:58.056Z,23.45
2022-12-19T05:54:01.338Z,27.07
2022-12-19T05:55:04.223Z,29.39
2022-12-19T05:56:07.217Z,27.23
2022-12-19T05:57:11.406Z,28.87
2022-12-19T05:58:14.281Z,33.11
2022-12-19T05:59:17.966Z,30.32
2022-12-19T06:00:21.149Z,34.25
2022-12-19T06:01:24.188Z,29.79
2022-12-19T06:02:27.107Z,30.47
2022-12-19T06:03:30.067Z,31.87
2022-12-19T06:04:32.953Z,28.66
2022-12-19T06:05:35.829Z,30.34
2022-12-19T06:06:38.817Z,31.20
2022-12-19T06:07:41.677Z,31.62
2022-12-19T06:08:44.497Z,36.10
2022-12-19T06:09:47.341Z,34.76
2022-12-19T06:10:50.115Z,31.21
2022-12-19T06:11:52.972Z,31.85
2022-12-19T06:12:55.759Z,33.29
2022-12-19T06:13:58.430Z,37.78
2022-12-19T06:15:01.089Z,31.41
2022-12-19T06:16:03.817Z,35.97
2022-12-19T06:17:06.428Z,29.61
2022-12-19T06:18:09.203Z,36.04
2022-12-19T06:19:12.286Z,31.05
2022-12-19T06:20:14.842Z,32.07
2022-12-19T06:21:17.544Z,32.52
2022-12-19T06:22:20.491Z,31.11
2022-12-19T06:23:23.366Z,33.79
2022-12-19T06:24:26.343Z,32.32
2022-12-19T06:25:29.217Z,32.25
2022-12-19T06:26:31.994Z,33.12
2022-12-19T06:27:34.764Z,32.95
2022-12-19T06:28:37.538Z,34.01
2022-12-19T06:29:40.415Z,27.78
2022-12-19T06:30:43.597Z,31.18
2022-12-19T06:31:46.609Z,32.38
2022-12-19T06:32:49.442Z,30.23
2022-12-19T06:33:52.420Z,34.11
2022-12-19T06:35:04.152Z,31.95
2022-12-19T06:35:59.705Z,28.91
2022-12-19T06:37:07.852Z,26.19
2022-12-19T06:38:06.990Z,28.42
2022-12-19T06:39:09.969Z,28.85
2022-12-19T06:40:12.739Z,30.17
2022-12-19T06:41:16.014Z,31.03
2022-12-19T06:42:18.922Z,33.91
2022-12-19T06:43:21.670Z,28.25
2022-12-19T06:44:24.440Z,28.33
2022-12-19T06:45:27.370Z,34.38
2022-12-19T06:46:30.501Z,30.21
2022-12-19T06:47:33.475Z,30.82
2022-12-19T06:48:36.483Z,31.12
2022-12-19T06:49:39.323Z,31.85
2022-12-19T06:50:42.100Z,32.78
2022-12-19T06:51:44.973Z,30.10
2022-12-19T06:52:48.166Z,31.11
2022-12-19T06:53:50.926Z,32.18
2022-12-19T06:54:53.837Z,26.55
2022-12-19T06:55:56.673Z,26.38
2022-12-19T06:57:00.069Z,25.38
2022-12-19T06:58:03.036Z,26.22
2022-12-19T06:59:05.486Z,29.40
2022-12-19T07:00:08.386Z,32.32
2022-12-19T07:01:11.187Z,23.08
2022-12-19T07:02:14.298Z,25.31
2022-12-19T07:03:17.308Z,22.81
2022-12-19T07:04:20.092Z,25.33
2022-12-19T07:05:22.858Z,24.08
2022-12-19T07:06:25.629Z,23.66
2022-12-19T07:07:28.601Z,22.23
2022-12-19T07:08:31.473Z,24.00
2022-12-19T07:09:34.425Z,20.64
2022-12-19T07:10:37.310Z,21.79
2022-12-19T07:11:39.893Z,19.73
2022-12-19T07:12:42.898Z,20.22
2022-12-19T07:13:45.468Z,20.85
2022-12-19T07:14:53.119Z,20.65
2022-12-19T07:15:52.210Z,18.39
2022-12-19T07:16:54.787Z,22.60
2022-12-19T07:17:57.455Z,19.21
2022-12-19T07:19:00.029Z,19.37
2022-12-19T07:20:02.593Z,21.01
2022-12-19T07:21:05.271Z,20.44
2022-12-19T07:22:08.265Z,18.39
2022-12-19T07:23:11.207Z,16.78
2022-12-19T07:24:13.875Z,18.26
2022-12-19T07:25:16.874Z,21.25
2022-12-19T07:26:19.736Z,19.76
2022-12-19T07:27:22.507Z,20.51
2022-12-19T07:28:25.583Z,20.58
2022-12-19T07:29:28.355Z,19.07
2022-12-19T07:30:31.226Z,20.05
2022-12-19T07:31:34.167Z,22.90
2022-12-19T07:32:36.788Z,23.79
2022-12-19T07:33:39.847Z,21.45
2022-12-19T07:34:42.634Z,20.43
2022-12-19T07:35:45.705Z,21.79
2022-12-19T07:36:48.476Z,18.58
2022-12-19T07:37:51.050Z,22.45
2022-12-19T07:38:54.037Z,20.63
2022-12-19T07:39:56.591Z,21.36
2022-12-19T07:40:59.466Z,23.70
2022-12-19T07:42:02.255Z,25.96
2022-12-19T07:43:05.105Z,21.22
2022-12-19T07:44:08.097Z,21.05
2022-12-19T07:45:10.852Z,22.57
2022-12-19T07:46:13.830Z,23.72
2022-12-19T07:47:16.604Z,24.98
2022-12-19T07:48:19.478Z,30.43
2022-12-19T07:49:23.023Z,26.52
2022-12-19T07:50:25.951Z,21.61
2022-12-19T07:51:28.717Z,27.22
2022-12-19T07:52:31.701Z,31.26
2022-12-19T07:53:34.566Z,30.07
2022-12-19T07:54:37.448Z,29.72
2022-12-19T07:55:40.317Z,29.42
2022-12-19T07:56:43.220Z,32.98
2022-12-19T07:57:46.277Z,27.48
2022-12-19T07:58:49.429Z,25.31
2022-12-19T07:59:52.032Z,30.47
2022-12-19T08:00:54.874Z,23.83
2022-12-19T08:01:57.669Z,24.55
2022-12-19T08:03:00.520Z,23.27
2022-12-19T08:04:03.140Z,24.31
2022-12-19T08:05:05.783Z,24.89
2022-12-19T08:06:08.456Z,29.20
2022-12-19T08:07:11.123Z,24.43
2022-12-19T08:08:13.799Z,24.37
2022-12-19T08:09:16.468Z,24.07
2022-12-19T08:10:19.030Z,24.06
2022-12-19T08:11:21.712Z,28.38
2022-12-19T08:12:24.269Z,26.39
2022-12-19T08:13:30.034Z,26.95
2022-12-19T08:14:31.176Z,25.18
2022-12-19T08:15:33.811Z,21.69
2022-12-19T08:16:55.563Z,19.68
2022-12-19T08:17:40.744Z,23.09
2022-12-19T08:18:43.364Z,20.96
2022-12-19T08:19:46.047Z,24.53
2022-12-19T08:20:48.597Z,26.05
2022-12-19T08:21:51.290Z,25.73
2022-12-19T08:22:53.851Z,20.58
2022-12-19T08:23:56.398Z,21.82
2022-12-19T08:24:59.382Z,22.94
2022-12-19T08:26:02.361Z,24.11
2022-12-19T08:27:05.142Z,23.73
2022-12-19T08:28:08.021Z,26.81
2022-12-19T08:29:10.887Z,28.39
2022-12-19T08:30:13.657Z,21.05
2022-12-19T08:31:16.809Z,22.65
2022-12-19T08:32:21.543Z,24.66
2022-12-19T08:33:24.028Z,25.29
2022-12-19T08:34:26.786Z,24.08
2022-12-19T08:35:29.558Z,22.95
2022-12-19T08:36:32.435Z,22.05
2022-12-19T08:37:35.311Z,22.72
2022-12-19T08:38:38.287Z,19.18
2022-12-19T08:39:41.159Z,24.37
2022-12-19T08:40:47.372Z,26.14
2022-12-19T08:41:48.647Z,24.44
2022-12-19T08:42:51.561Z,29.00
2022-12-19T08:43:54.417Z,29.10
2022-12-19T08:44:57.186Z,25.82
2022-12-19T08:46:00.170Z,23.64
2022-12-19T08:47:03.250Z,23.36
2022-12-19T08:48:06.208Z,22.96
2022-12-19T08:49:08.878Z,24.90
2022-12-19T08:50:11.746Z,23.73
2022-12-19T08:51:14.647Z,21.23
2022-12-19T08:52:17.392Z,23.74
2022-12-19T08:53:25.804Z,22.76
2022-12-19T08:54:24.190Z,25.62
2022-12-19T08:55:28.321Z,28.03
2022-12-19T08:56:30.949Z,25.03
2022-12-19T08:57:33.629Z,28.07
2022-12-19T08:58:36.175Z,27.37
2022-12-19T08:59:38.756Z,25.77
2022-12-19T09:00:42.237Z,28.07
2022-12-19T09:01:45.058Z,25.19
2022-12-19T09:02:47.981Z,28.43
2022-12-19T09:05:01.603Z,28.25
2022-12-19T09:06:02.142Z,25.62
2022-12-19T09:06:07.025Z,25.36
2022-12-19T09:07:04.318Z,29.77
2022-12-19T09:08:07.065Z,29.93
2022-12-19T09:09:09.948Z,29.21
2022-12-19T09:10:12.821Z,28.32
2022-12-19T09:11:17.235Z,31.19
2022-12-19T09:12:20.460Z,30.35
2022-12-19T09:13:23.284Z,27.92
2022-12-19T09:14:26.155Z,27.47
2022-12-19T09:15:29.038Z,24.55
2022-12-19T09:16:31.852Z,28.75
2022-12-19T09:17:34.693Z,26.82
2022-12-19T09:18:37.557Z,31.76
2022-12-19T09:19:43.004Z,29.58
2022-12-19T09:20:44.950Z,30.39
2022-12-19T09:21:48.044Z,31.79
2022-12-19T09:22:50.904Z,29.58
2022-12-19T09:23:53.908Z,29.91
2022-12-19T09:24:56.749Z,37.80
2022-12-19T09:25:59.628Z,38.09
2022-12-19T09:27:02.407Z,30.88
2022-12-19T09:29:19.848Z,30.86
2022-12-19T09:30:14.710Z,29.91
2022-12-19T09:31:17.624Z,33.09
2022-12-19T09:32:20.458Z,32.20
2022-12-19T09:33:23.488Z,35.05
2022-12-19T09:34:33.114Z,28.64
2022-12-19T09:35:30.844Z,31.71
2022-12-19T09:36:33.706Z,30.93
2022-12-19T09:37:36.778Z,35.88
2022-12-19T09:38:39.766Z,36.47
2022-12-19T09:39:42.850Z,33.78
2022-12-19T09:40:45.608Z,28.78
2022-12-19T09:41:48.476Z,27.82
2022-12-19T09:42:51.369Z,31.83
2022-12-19T09:43:54.231Z,31.22
2022-12-19T09:44:57.720Z,34.99
2022-12-19T09:46:00.635Z,35.58
2022-12-19T09:47:03.369Z,30.94
2022-12-19T09:48:06.148Z,32.84
2022-12-19T09:49:10.451Z,30.66
2022-12-19T09:50:13.633Z,30.62
2022-12-19T09:51:16.304Z,26.61
2022-12-19T09:52:18.869Z,29.79
2022-12-19T09:53:21.534Z,28.52
2022-12-19T09:54:24.212Z,31.17
2022-12-19T09:55:27.790Z,29.62
2022-12-19T09:56:31.373Z,27.60
2022-12-19T09:57:35.174Z,27.77
2022-12-19T09:58:37.967Z,25.65
2022-12-19T09:59:47.674Z,26.94
2022-12-19T10:00:44.840Z,25.84
2022-12-19T10:01:47.879Z,25.40
2022-12-19T10:02:50.920Z,24.30
2022-12-19T10:03:53.902Z,26.53
2022-12-19T10:05:03.738Z,28.09
2022-12-19T10:06:43.118Z,25.73
2022-12-19T10:07:22.149Z,28.15
2022-12-19T10:08:10.652Z,25.69
2022-12-19T10:11:16.780Z,21.59
2022-12-19T10:12:33.099Z,23.04
2022-12-19T10:12:40.989Z,22.87
2022-12-19T10:12:47.303Z,23.41
2022-12-19T10:13:31.115Z,24.39
2022-12-19T10:14:34.089Z,23.35
2022-12-19T10:15:37.441Z,22.75
2022-12-19T10:16:40.450Z,21.13
2022-12-19T10:17:43.247Z,25.06
2022-12-19T10:18:49.772Z,23.92
2022-12-19T10:19:50.807Z,24.95
2022-12-19T10:20:53.692Z,25.97
2022-12-19T10:22:17.685Z,23.67
2022-12-19T10:23:01.903Z,25.66
2022-12-19T10:24:04.771Z,25.08
2022-12-19T10:25:09.217Z,25.53
2022-12-19T10:26:12.365Z,24.89
2022-12-19T10:27:15.552Z,25.12
2022-12-19T10:28:18.427Z,22.52
2022-12-19T10:29:21.108Z,21.15
2022-12-19T10:30:23.900Z,22.50
2022-12-19T10:31:27.261Z,23.06
2022-12-19T10:32:30.371Z,27.04
2022-12-19T10:33:33.516Z,24.61
2022-12-19T10:34:39.768Z,26.73
2022-12-19T10:35:40.690Z,24.15
2022-12-19T10:37:12.822Z,24.47
2022-12-19T10:37:49.909Z,25.83
2022-12-19T10:38:52.702Z,28.19
2022-12-19T10:39:55.360Z,27.55
2022-12-19T10:40:57.926Z,22.27
2022-12-19T10:42:00.851Z,23.03
2022-12-19T10:43:09.376Z,29.02
2022-12-19T10:44:08.195Z,25.77
2022-12-19T10:45:11.075Z,29.85
2022-12-19T10:46:14.005Z,25.10
2022-12-19T10:47:16.612Z,24.25
2022-12-19T10:48:19.733Z,23.72
2022-12-19T10:49:23.512Z,31.54
2022-12-19T10:50:26.182Z,23.74
2022-12-19T10:51:28.859Z,25.06
2022-12-19T10:52:31.404Z,21.57
2022-12-19T10:53:34.117Z,23.70
2022-12-19T10:54:36.745Z,20.91
2022-12-19T10:55:39.298Z,21.80
2022-12-19T10:56:41.961Z,24.83
2022-12-19T10:57:45.144Z,34.94
2022-12-19T10:58:48.568Z,27.98
2022-12-19T10:59:51.309Z,28.91
2022-12-19T11:00:54.684Z,22.37
2022-12-19T11:02:01.207Z,21.43
2022-12-19T11:03:02.455Z,23.51
2022-12-19T11:04:05.593Z,23.35
2022-12-19T11:05:08.515Z,20.82
2022-12-19T11:06:12.643Z,21.92
2022-12-19T11:07:15.818Z,21.60
2022-12-19T11:08:20.180Z,23.61
2022-12-19T11:09:23.362Z,25.69
2022-12-19T11:11:39.442Z,23.31
2022-12-19T11:14:30.777Z,19.00
2022-12-19T11:17:06.618Z,17.53
2022-12-19T11:18:06.037Z,20.21
2022-12-19T11:18:57.971Z,21.27
2022-12-19T11:19:38.234Z,23.09
2022-12-19T11:24:18.584Z,19.15
2022-12-19T11:24:23.724Z,23.09
2022-12-19T11:29:25.596Z,22.15
2022-12-19T11:29:26.778Z,18.95
2022-12-19T11:29:40.457Z,21.54
2022-12-19T11:29:42.130Z,25.98
2022-12-19T11:29:42.533Z,22.92
2022-12-19T11:30:09.325Z,19.41
2022-12-19T11:30:36.277Z,21.91
2022-12-19T11:30:42.986Z,19.93
2022-12-19T11:30:45.724Z,23.26
2022-12-19T11:30:46.428Z,20.72
2022-12-19T11:31:44.184Z,23.20
2022-12-19T11:32:40.264Z,20.94
2022-12-19T11:33:02.069Z,23.74
2022-12-19T11:34:04.908Z,25.52
2022-12-19T11:35:07.455Z,23.92
2022-12-19T11:36:10.221Z,24.40
2022-12-19T11:37:12.890Z,20.76
2022-12-19T11:38:15.764Z,21.39
2022-12-19T11:39:18.933Z,20.70
2022-12-19T11:40:22.734Z,23.08
2022-12-19T11:41:25.407Z,21.76
2022-12-19T11:42:27.979Z,20.52
2022-12-19T11:43:46.856Z,22.93
2022-12-19T11:44:35.354Z,21.96
2022-12-19T11:45:38.249Z,20.57
2022-12-19T11:46:42.156Z,21.17
2022-12-19T11:47:45.019Z,19.65
2022-12-19T11:48:47.886Z,23.72
2022-12-19T11:49:51.166Z,22.24
2022-12-19T11:50:54.161Z,24.34
2022-12-19T11:51:56.937Z,23.57
2022-12-19T11:53:05.096Z,19.38
2022-12-19T11:54:04.004Z,21.37
2022-12-19T11:55:06.669Z,25.42
2022-12-19T11:56:16.409Z,24.70
2022-12-19T11:57:13.549Z,21.88
2022-12-19T11:58:16.318Z,23.08
2022-12-19T11:59:19.392Z,20.09
2022-12-19T12:00:22.566Z,21.83
2022-12-19T12:01:25.588Z,24.58
2022-12-19T12:02:28.837Z,21.81
2022-12-19T12:03:31.708Z,20.97
2022-12-19T12:04:35.049Z,20.61
2022-12-19T12:05:38.073Z,21.65
2022-12-19T12:06:45.328Z,22.81
2022-12-19T12:08:24.644Z,19.99
2022-12-19T12:11:21.522Z,22.32
2022-12-19T12:14:12.051Z,21.29
2022-12-19T12:18:25.554Z,22.31
2022-12-19T12:20:41.743Z,23.32
2022-12-19T12:23:53.831Z,21.94
2022-12-19T12:24:14.165Z,21.12
2022-12-19T12:24:56.205Z,18.14
2022-12-19T12:28:34.986Z,23.57
2022-12-19T12:30:27.593Z,23.11
2022-12-19T12:31:05.234Z,20.87
2022-12-19T12:31:14.531Z,18.33
2022-12-19T12:31:19.292Z,22.80
2022-12-19T12:31:29.545Z,21.78
2022-12-19T12:31:31.852Z,23.19
2022-12-19T12:31:44.835Z,19.44
2022-12-19T12:31:47.161Z,22.49
2022-12-19T12:31:50.627Z,18.66
2022-12-19T12:31:56.041Z,20.09
2022-12-19T12:31:57.752Z,19.76
2022-12-19T12:32:03.191Z,19.58
2022-12-19T12:32:05.403Z,20.81
2022-12-19T12:35:33.434Z,22.45
2022-12-19T12:35:50.036Z,22.50
2022-12-19T12:35:50.920Z,24.53
2022-12-19T12:35:55.108Z,20.71
2022-12-19T12:38:21.056Z,22.89
2022-12-19T12:39:59.530Z,19.96
2022-12-19T12:41:02.514Z,21.40
2022-12-19T12:42:05.681Z,20.97
2022-12-19T12:43:08.866Z,22.23
2022-12-19T12:44:12.097Z,22.04
2022-12-19T12:45:15.132Z,26.55
2022-12-19T12:46:18.082Z,28.36
2022-12-19T12:47:21.014Z,25.99
2022-12-19T12:48:23.760Z,22.92
2022-12-19T12:49:27.361Z,22.50
2022-12-19T12:50:30.233Z,23.61
2022-12-19T12:51:33.001Z,20.80
2022-12-19T12:52:35.880Z,19.07
2022-12-19T12:53:39.145Z,19.15
2022-12-19T12:54:42.229Z,22.95
2022-12-19T12:55:45.614Z,24.19
2022-12-19T12:56:48.895Z,21.36
2022-12-19T12:57:51.871Z,21.34
2022-12-19T12:58:54.944Z,21.32
2022-12-19T12:59:57.737Z,25.00
2022-12-19T13:01:00.548Z,21.37
2022-12-19T13:02:03.590Z,21.75
2022-12-19T13:03:06.732Z,20.05
2022-12-19T13:04:09.623Z,18.02
2022-12-19T13:05:12.424Z,19.83
2022-12-19T13:06:15.408Z,22.10
2022-12-19T13:07:18.161Z,22.55
2022-12-19T13:08:20.828Z,24.01
2022-12-19T13:09:23.595Z,27.58
2022-12-19T13:10:26.480Z,19.78
2022-12-19T13:11:29.849Z,24.18
2022-12-19T13:12:33.144Z,24.74
2022-12-19T13:13:36.317Z,20.57
2022-12-19T13:14:39.499Z,18.82
2022-12-19T13:15:42.496Z,22.77
2022-12-19T13:16:46.036Z,20.01
2022-12-19T13:17:49.430Z,22.40
2022-12-19T13:18:52.633Z,25.15
2022-12-19T13:19:55.627Z,21.91
2022-12-19T13:20:58.406Z,20.60
2022-12-19T13:22:01.668Z,22.58
2022-12-19T13:23:04.851Z,23.03
2022-12-19T13:24:08.028Z,24.87
2022-12-19T13:25:12.678Z,22.37
2022-12-19T13:26:19.664Z,25.34
2022-12-19T13:27:20.070Z,25.70
2022-12-19T13:28:22.944Z,22.61
2022-12-19T13:29:26.028Z,23.40
2022-12-19T13:30:29.138Z,24.75
2022-12-19T13:31:31.804Z,25.81
2022-12-19T13:32:35.025Z,22.40
2022-12-19T13:33:39.353Z,24.40
2022-12-19T13:34:43.520Z,26.44
2022-12-19T13:39:38.980Z,22.59
2022-12-19T13:39:47.738Z,22.93
2022-12-19T13:39:52.180Z,25.02